sensor_id;sensor_type;location;lat;lon;timestamp;P1;durP1;ratioP1;P2;durP2;ratioP2
73776;SDS011;62088;50.240;2.696;2023-01-13T00:01:22;10.63;;;1.50;;
73776;SDS011;62088;50.240;2.696;2023-01-13T00:03:51;8.75;;;1.20;;
73776;SDS011;62088;50.240;2.696;2023-01-13T00:06:19;12.18;;;1.92;;
73776;SDS011;62088;50.240;2.696;2023-01-13T00:08:51;8.65;;;1.70;;
73776;SDS011;62088;50.240;2.696;2023-01-13T00:11:18;15.70;;;2.78;;
73776;SDS011;62088;50.240;2.696;2023-01-13T00:13:46;12.70;;;2.00;;
73776;SDS011;62088;50.240;2.696;2023-01-13T00:16:14;11.00;;;2.22;;
73776;SDS011;62088;50.240;2.696;2023-01-13T00:18:43;12.40;;;2.42;;
73776;SDS011;62088;50.240;2.696;2023-01-13T00:21:14;12.30;;;2.50;;
73776;SDS011;62088;50.240;2.696;2023-01-13T00:23:43;8.65;;;1.38;;
73776;SDS011;62088;50.240;2.696;2023-01-13T00:26:14;16.15;;;2.95;;
73776;SDS011;62088;50.240;2.696;2023-01-13T00:28:43;11.52;;;1.92;;
73776;SDS011;62088;50.240;2.696;2023-01-13T00:31:11;16.13;;;2.58;;
73776;SDS011;62088;50.240;2.696;2023-01-13T00:33:40;14.07;;;2.10;;
73776;SDS011;62088;50.240;2.696;2023-01-13T00:36:09;13.18;;;2.00;;
73776;SDS011;62088;50.240;2.696;2023-01-13T00:38:38;7.85;;;1.35;;
73776;SDS011;62088;50.240;2.696;2023-01-13T00:41:12;10.32;;;2.47;;
73776;SDS011;62088;50.240;2.696;2023-01-13T00:43:49;12.38;;;2.67;;
73776;SDS011;62088;50.240;2.696;2023-01-13T00:46:17;11.95;;;2.15;;
73776;SDS011;62088;50.240;2.696;2023-01-13T00:48:46;12.38;;;1.80;;
73776;SDS011;62088;50.240;2.696;2023-01-13T00:51:14;9.77;;;2.20;;
73776;SDS011;62088;50.240;2.696;2023-01-13T00:53:44;9.82;;;1.67;;
73776;SDS011;62088;50.240;2.696;2023-01-13T00:58:42;13.70;;;2.58;;
73776;SDS011;62088;50.240;2.696;2023-01-13T01:01:17;11.23;;;2.08;;
73776;SDS011;62088;50.240;2.696;2023-01-13T01:03:46;16.50;;;2.95;;
73776;SDS011;62088;50.240;2.696;2023-01-13T01:06:16;10.32;;;1.70;;
73776;SDS011;62088;50.240;2.696;2023-01-13T01:08:44;15.43;;;2.10;;
73776;SDS011;62088;50.240;2.696;2023-01-13T01:11:16;14.18;;;2.47;;
73776;SDS011;62088;50.240;2.696;2023-01-13T01:13:46;20.70;;;2.97;;
73776;SDS011;62088;50.240;2.696;2023-01-13T01:16:18;15.05;;;3.42;;
73776;SDS011;62088;50.240;2.696;2023-01-13T01:18:47;17.95;;;2.88;;
73776;SDS011;62088;50.240;2.696;2023-01-13T01:21:16;17.27;;;2.67;;
73776;SDS011;62088;50.240;2.696;2023-01-13T01:23:44;16.92;;;2.92;;
73776;SDS011;62088;50.240;2.696;2023-01-13T01:26:12;13.18;;;2.50;;
73776;SDS011;62088;50.240;2.696;2023-01-13T01:28:41;15.52;;;2.85;;
73776;SDS011;62088;50.240;2.696;2023-01-13T01:31:10;13.80;;;2.53;;
73776;SDS011;62088;50.240;2.696;2023-01-13T01:33:39;16.83;;;3.13;;
73776;SDS011;62088;50.240;2.696;2023-01-13T01:36:07;15.23;;;3.17;;
73776;SDS011;62088;50.240;2.696;2023-01-13T01:38:35;10.98;;;1.88;;
73776;SDS011;62088;50.240;2.696;2023-01-13T01:41:02;16.02;;;2.50;;
73776;SDS011;62088;50.240;2.696;2023-01-13T01:43:49;11.23;;;2.13;;
73776;SDS011;62088;50.240;2.696;2023-01-13T01:52:17;14.95;;;2.30;;
73776;SDS011;62088;50.240;2.696;2023-01-13T01:54:51;11.23;;;2.88;;
73776;SDS011;62088;50.240;2.696;2023-01-13T01:57:40;14.13;;;2.70;;
73776;SDS011;62088;50.240;2.696;2023-01-13T02:00:16;19.33;;;2.60;;
73776;SDS011;62088;50.240;2.696;2023-01-13T02:02:45;15.65;;;2.78;;
73776;SDS011;62088;50.240;2.696;2023-01-13T02:05:15;16.42;;;2.97;;
73776;SDS011;62088;50.240;2.696;2023-01-13T02:07:43;16.05;;;3.03;;
73776;SDS011;62088;50.240;2.696;2023-01-13T02:10:13;14.05;;;3.47;;
73776;SDS011;62088;50.240;2.696;2023-01-13T02:12:45;13.38;;;2.80;;
73776;SDS011;62088;50.240;2.696;2023-01-13T02:15:15;15.20;;;2.75;;
73776;SDS011;62088;50.240;2.696;2023-01-13T02:31:58;17.90;;;3.22;;
73776;SDS011;62088;50.240;2.696;2023-01-13T02:35:10;11.32;;;1.98;;
73776;SDS011;62088;50.240;2.696;2023-01-13T02:37:45;12.85;;;2.17;;
73776;SDS011;62088;50.240;2.696;2023-01-13T02:43:22;16.17;;;2.53;;
73776;SDS011;62088;50.240;2.696;2023-01-13T02:48:47;9.43;;;1.55;;
73776;SDS011;62088;50.240;2.696;2023-01-13T02:51:18;13.98;;;2.67;;
73776;SDS011;62088;50.240;2.696;2023-01-13T02:54:08;16.85;;;2.97;;
73776;SDS011;62088;50.240;2.696;2023-01-13T02:56:41;18.83;;;3.42;;
73776;SDS011;62088;50.240;2.696;2023-01-13T02:59:12;9.30;;;2.13;;
73776;SDS011;62088;50.240;2.696;2023-01-13T03:01:40;12.77;;;2.05;;
73776;SDS011;62088;50.240;2.696;2023-01-13T03:04:12;15.48;;;2.97;;
73776;SDS011;62088;50.240;2.696;2023-01-13T03:09:13;11.43;;;1.83;;
73776;SDS011;62088;50.240;2.696;2023-01-13T03:14:37;17.75;;;2.85;;
73776;SDS011;62088;50.240;2.696;2023-01-13T03:17:21;16.95;;;4.63;;
73776;SDS011;62088;50.240;2.696;2023-01-13T03:20:22;15.73;;;3.20;;
73776;SDS011;62088;50.240;2.696;2023-01-13T03:25:42;19.50;;;2.58;;
73776;SDS011;62088;50.240;2.696;2023-01-13T03:28:22;22.80;;;3.88;;
73776;SDS011;62088;50.240;2.696;2023-01-13T03:31:00;22.48;;;3.65;;
73776;SDS011;62088;50.240;2.696;2023-01-13T03:33:34;21.48;;;3.38;;
73776;SDS011;62088;50.240;2.696;2023-01-13T03:36:11;28.90;;;5.38;;
73776;SDS011;62088;50.240;2.696;2023-01-13T03:38:44;16.83;;;2.85;;
73776;SDS011;62088;50.240;2.696;2023-01-13T03:41:18;21.90;;;3.38;;
73776;SDS011;62088;50.240;2.696;2023-01-13T03:43:53;19.90;;;3.67;;
73776;SDS011;62088;50.240;2.696;2023-01-13T03:46:56;22.88;;;3.58;;
73776;SDS011;62088;50.240;2.696;2023-01-13T03:50:12;18.50;;;2.22;;
73776;SDS011;62088;50.240;2.696;2023-01-13T03:52:43;15.68;;;2.88;;
73776;SDS011;62088;50.240;2.696;2023-01-13T03:55:35;21.55;;;3.95;;
73776;SDS011;62088;50.240;2.696;2023-01-13T03:58:07;24.95;;;4.43;;
73776;SDS011;62088;50.240;2.696;2023-01-13T04:01:01;11.73;;;2.42;;
73776;SDS011;62088;50.240;2.696;2023-01-13T04:03:39;13.73;;;2.58;;
73776;SDS011;62088;50.240;2.696;2023-01-13T04:06:14;26.80;;;4.63;;
73776;SDS011;62088;50.240;2.696;2023-01-13T04:08:57;23.55;;;3.45;;
73776;SDS011;62088;50.240;2.696;2023-01-13T04:11:45;20.10;;;3.38;;
73776;SDS011;62088;50.240;2.696;2023-01-13T04:14:19;21.90;;;3.80;;
73776;SDS011;62088;50.240;2.696;2023-01-13T04:16:48;20.17;;;4.00;;
73776;SDS011;62088;50.240;2.696;2023-01-13T04:19:15;22.00;;;3.58;;
73776;SDS011;62088;50.240;2.696;2023-01-13T04:21:42;25.42;;;4.00;;
73776;SDS011;62088;50.240;2.696;2023-01-13T04:24:09;20.52;;;3.65;;
73776;SDS011;62088;50.240;2.696;2023-01-13T04:26:36;20.52;;;2.97;;
73776;SDS011;62088;50.240;2.696;2023-01-13T04:29:03;17.30;;;2.53;;
73776;SDS011;62088;50.240;2.696;2023-01-13T04:31:30;20.27;;;2.65;;
73776;SDS011;62088;50.240;2.696;2023-01-13T04:33:57;21.63;;;3.60;;
73776;SDS011;62088;50.240;2.696;2023-01-13T04:36:24;21.02;;;4.10;;
73776;SDS011;62088;50.240;2.696;2023-01-13T04:38:53;25.88;;;3.40;;
73776;SDS011;62088;50.240;2.696;2023-01-13T04:41:20;22.35;;;3.75;;
73776;SDS011;62088;50.240;2.696;2023-01-13T04:43:47;18.23;;;3.47;;
73776;SDS011;62088;50.240;2.696;2023-01-13T04:46:14;21.67;;;4.03;;
73776;SDS011;62088;50.240;2.696;2023-01-13T04:48:41;25.15;;;4.68;;
73776;SDS011;62088;50.240;2.696;2023-01-13T04:51:08;27.05;;;4.70;;
73776;SDS011;62088;50.240;2.696;2023-01-13T04:53:35;26.08;;;4.57;;
73776;SDS011;62088;50.240;2.696;2023-01-13T04:56:02;14.80;;;3.00;;
73776;SDS011;62088;50.240;2.696;2023-01-13T04:58:29;30.98;;;4.55;;
73776;SDS011;62088;50.240;2.696;2023-01-13T05:00:56;29.80;;;4.70;;
73776;SDS011;62088;50.240;2.696;2023-01-13T05:03:23;19.48;;;3.08;;
73776;SDS011;62088;50.240;2.696;2023-01-13T05:05:52;27.10;;;3.85;;
73776;SDS011;62088;50.240;2.696;2023-01-13T05:08:19;27.73;;;4.53;;
73776;SDS011;62088;50.240;2.696;2023-01-13T05:10:46;25.52;;;4.75;;
73776;SDS011;62088;50.240;2.696;2023-01-13T05:13:13;22.02;;;3.90;;
73776;SDS011;62088;50.240;2.696;2023-01-13T05:15:59;18.08;;;2.70;;
73776;SDS011;62088;50.240;2.696;2023-01-13T05:18:45;28.13;;;4.68;;
73776;SDS011;62088;50.240;2.696;2023-01-13T05:21:12;16.95;;;2.75;;
73776;SDS011;62088;50.240;2.696;2023-01-13T05:23:59;23.77;;;2.97;;
73776;SDS011;62088;50.240;2.696;2023-01-13T05:26:44;17.95;;;3.67;;
73776;SDS011;62088;50.240;2.696;2023-01-13T05:29:11;28.88;;;5.18;;
73776;SDS011;62088;50.240;2.696;2023-01-13T05:31:38;27.90;;;5.22;;
73776;SDS011;62088;50.240;2.696;2023-01-13T05:34:06;26.00;;;4.65;;
73776;SDS011;62088;50.240;2.696;2023-01-13T05:36:33;25.25;;;5.43;;
73776;SDS011;62088;50.240;2.696;2023-01-13T05:38:59;26.45;;;3.90;;
73776;SDS011;62088;50.240;2.696;2023-01-13T05:41:27;18.52;;;3.47;;
73776;SDS011;62088;50.240;2.696;2023-01-13T05:44:12;28.70;;;4.28;;
73776;SDS011;62088;50.240;2.696;2023-01-13T05:46:39;18.23;;;2.90;;
73776;SDS011;62088;50.240;2.696;2023-01-13T05:49:07;27.98;;;5.07;;
73776;SDS011;62088;50.240;2.696;2023-01-13T05:51:34;17.80;;;2.58;;
73776;SDS011;62088;50.240;2.696;2023-01-13T05:54:01;15.48;;;3.22;;
73776;SDS011;62088;50.240;2.696;2023-01-13T05:56:28;21.23;;;3.90;;
73776;SDS011;62088;50.240;2.696;2023-01-13T05:58:55;23.10;;;3.80;;
73776;SDS011;62088;50.240;2.696;2023-01-13T06:01:22;21.35;;;2.45;;
73776;SDS011;62088;50.240;2.696;2023-01-13T06:03:49;26.65;;;2.45;;
73776;SDS011;62088;50.240;2.696;2023-01-13T06:06:16;24.02;;;2.42;;
73776;SDS011;62088;50.240;2.696;2023-01-13T06:08:43;19.20;;;2.80;;
73776;SDS011;62088;50.240;2.696;2023-01-13T06:11:10;21.33;;;3.65;;
73776;SDS011;62088;50.240;2.696;2023-01-13T06:13:37;18.98;;;3.20;;
73776;SDS011;62088;50.240;2.696;2023-01-13T06:16:04;18.83;;;3.15;;
73776;SDS011;62088;50.240;2.696;2023-01-13T06:18:31;22.50;;;4.05;;
73776;SDS011;62088;50.240;2.696;2023-01-13T06:20:58;20.73;;;2.55;;
73776;SDS011;62088;50.240;2.696;2023-01-13T06:23:25;18.52;;;2.95;;
73776;SDS011;62088;50.240;2.696;2023-01-13T06:25:58;20.08;;;2.65;;
73776;SDS011;62088;50.240;2.696;2023-01-13T06:28:44;15.35;;;2.80;;
73776;SDS011;62088;50.240;2.696;2023-01-13T06:31:11;18.58;;;2.78;;
73776;SDS011;62088;50.240;2.696;2023-01-13T06:33:40;25.05;;;4.10;;
73776;SDS011;62088;50.240;2.696;2023-01-13T06:36:18;23.50;;;3.17;;
73776;SDS011;62088;50.240;2.696;2023-01-13T06:38:48;25.55;;;4.18;;
73776;SDS011;62088;50.240;2.696;2023-01-13T06:41:19;28.35;;;3.50;;
73776;SDS011;62088;50.240;2.696;2023-01-13T06:44:05;21.67;;;3.05;;
73776;SDS011;62088;50.240;2.696;2023-01-13T06:46:32;28.80;;;4.93;;
73776;SDS011;62088;50.240;2.696;2023-01-13T06:49:01;27.83;;;4.70;;
73776;SDS011;62088;50.240;2.696;2023-01-13T06:51:28;23.75;;;3.58;;
73776;SDS011;62088;50.240;2.696;2023-01-13T06:53:55;27.35;;;5.40;;
73776;SDS011;62088;50.240;2.696;2023-01-13T06:56:22;27.23;;;4.53;;
73776;SDS011;62088;50.240;2.696;2023-01-13T06:58:49;31.52;;;5.68;;
73776;SDS011;62088;50.240;2.696;2023-01-13T07:01:16;23.75;;;3.90;;
73776;SDS011;62088;50.240;2.696;2023-01-13T07:03:43;21.58;;;3.45;;
73776;SDS011;62088;50.240;2.696;2023-01-13T07:06:10;23.95;;;4.32;;
73776;SDS011;62088;50.240;2.696;2023-01-13T07:08:37;24.13;;;3.28;;
73776;SDS011;62088;50.240;2.696;2023-01-13T07:11:04;26.42;;;4.28;;
73776;SDS011;62088;50.240;2.696;2023-01-13T07:13:33;24.70;;;3.20;;
73776;SDS011;62088;50.240;2.696;2023-01-13T07:16:19;16.15;;;3.30;;
73776;SDS011;62088;50.240;2.696;2023-01-13T07:18:46;30.52;;;5.70;;
73776;SDS011;62088;50.240;2.696;2023-01-13T07:21:13;20.85;;;4.43;;
73776;SDS011;62088;50.240;2.696;2023-01-13T07:23:44;17.63;;;2.97;;
73776;SDS011;62088;50.240;2.696;2023-01-13T07:26:13;24.95;;;3.45;;
73776;SDS011;62088;50.240;2.696;2023-01-13T07:28:41;24.35;;;4.82;;
73776;SDS011;62088;50.240;2.696;2023-01-13T07:31:15;22.60;;;3.33;;
73776;SDS011;62088;50.240;2.696;2023-01-13T07:33:44;25.15;;;3.75;;
73776;SDS011;62088;50.240;2.696;2023-01-13T07:36:12;16.50;;;3.15;;
73776;SDS011;62088;50.240;2.696;2023-01-13T07:38:39;31.35;;;5.15;;
73776;SDS011;62088;50.240;2.696;2023-01-13T07:41:06;21.17;;;3.03;;
73776;SDS011;62088;50.240;2.696;2023-01-13T07:43:56;17.08;;;2.97;;
73776;SDS011;62088;50.240;2.696;2023-01-13T07:46:25;22.65;;;5.07;;
73776;SDS011;62088;50.240;2.696;2023-01-13T07:48:52;21.63;;;4.57;;
73776;SDS011;62088;50.240;2.696;2023-01-13T07:51:19;25.92;;;4.93;;
73776;SDS011;62088;50.240;2.696;2023-01-13T07:53:46;29.38;;;5.00;;
73776;SDS011;62088;50.240;2.696;2023-01-13T07:56:14;24.00;;;4.15;;
73776;SDS011;62088;50.240;2.696;2023-01-13T07:58:41;28.67;;;5.30;;
73776;SDS011;62088;50.240;2.696;2023-01-13T08:01:11;29.85;;;4.53;;
73776;SDS011;62088;50.240;2.696;2023-01-13T08:03:39;30.85;;;4.30;;
73776;SDS011;62088;50.240;2.696;2023-01-13T08:06:06;21.30;;;3.88;;
73776;SDS011;62088;50.240;2.696;2023-01-13T08:08:33;20.98;;;3.53;;
73776;SDS011;62088;50.240;2.696;2023-01-13T08:11:01;25.02;;;5.50;;
73776;SDS011;62088;50.240;2.696;2023-01-13T08:13:29;34.20;;;4.60;;
73776;SDS011;62088;50.240;2.696;2023-01-13T08:16:15;24.05;;;3.42;;
73776;SDS011;62088;50.240;2.696;2023-01-13T08:18:42;25.80;;;3.75;;
73776;SDS011;62088;50.240;2.696;2023-01-13T08:21:11;32.47;;;5.45;;
73776;SDS011;62088;50.240;2.696;2023-01-13T08:23:39;38.45;;;6.13;;
73776;SDS011;62088;50.240;2.696;2023-01-13T08:26:09;21.85;;;4.28;;
73776;SDS011;62088;50.240;2.696;2023-01-13T08:28:38;19.33;;;3.50;;
73776;SDS011;62088;50.240;2.696;2023-01-13T08:31:06;17.35;;;3.22;;
73776;SDS011;62088;50.240;2.696;2023-01-13T08:33:36;19.73;;;3.63;;
73776;SDS011;62088;50.240;2.696;2023-01-13T08:36:04;24.20;;;4.82;;
73776;SDS011;62088;50.240;2.696;2023-01-13T08:38:33;21.17;;;3.25;;
73776;SDS011;62088;50.240;2.696;2023-01-13T08:41:10;20.48;;;3.80;;
73776;SDS011;62088;50.240;2.696;2023-01-13T08:43:39;27.80;;;4.65;;
73776;SDS011;62088;50.240;2.696;2023-01-13T08:46:07;23.85;;;3.67;;
73776;SDS011;62088;50.240;2.696;2023-01-13T08:48:34;24.30;;;4.50;;
73776;SDS011;62088;50.240;2.696;2023-01-13T08:51:02;20.23;;;3.67;;
73776;SDS011;62088;50.240;2.696;2023-01-13T08:53:31;38.17;;;6.25;;
73776;SDS011;62088;50.240;2.696;2023-01-13T08:55:58;23.13;;;3.53;;
73776;SDS011;62088;50.240;2.696;2023-01-13T08:58:25;20.52;;;3.17;;
73776;SDS011;62088;50.240;2.696;2023-01-13T09:00:52;18.25;;;3.95;;
73776;SDS011;62088;50.240;2.696;2023-01-13T09:03:19;30.60;;;4.35;;
73776;SDS011;62088;50.240;2.696;2023-01-13T09:05:46;30.23;;;3.80;;
73776;SDS011;62088;50.240;2.696;2023-01-13T09:08:14;40.45;;;6.50;;
73776;SDS011;62088;50.240;2.696;2023-01-13T09:10:41;28.75;;;5.25;;
73776;SDS011;62088;50.240;2.696;2023-01-13T09:13:10;25.42;;;4.03;;
73776;SDS011;62088;50.240;2.696;2023-01-13T09:15:39;42.15;;;6.85;;
73776;SDS011;62088;50.240;2.696;2023-01-13T09:18:07;28.50;;;4.78;;
73776;SDS011;62088;50.240;2.696;2023-01-13T09:20:34;39.13;;;6.03;;
73776;SDS011;62088;50.240;2.696;2023-01-13T09:23:02;28.10;;;4.30;;
73776;SDS011;62088;50.240;2.696;2023-01-13T09:25:31;30.10;;;4.63;;
73776;SDS011;62088;50.240;2.696;2023-01-13T09:28:01;33.03;;;6.07;;
73776;SDS011;62088;50.240;2.696;2023-01-13T09:30:30;28.85;;;5.15;;
73776;SDS011;62088;50.240;2.696;2023-01-13T09:32:57;35.33;;;4.65;;
73776;SDS011;62088;50.240;2.696;2023-01-13T09:35:56;25.13;;;4.10;;
73776;SDS011;62088;50.240;2.696;2023-01-13T09:38:24;35.38;;;4.38;;
73776;SDS011;62088;50.240;2.696;2023-01-13T09:40:51;32.95;;;5.22;;
73776;SDS011;62088;50.240;2.696;2023-01-13T09:43:22;24.83;;;3.72;;
73776;SDS011;62088;50.240;2.696;2023-01-13T09:46:22;25.95;;;3.75;;
73776;SDS011;62088;50.240;2.696;2023-01-13T09:49:22;28.30;;;5.40;;
73776;SDS011;62088;50.240;2.696;2023-01-13T09:51:57;27.65;;;5.35;;
73776;SDS011;62088;50.240;2.696;2023-01-13T09:57:15;36.33;;;5.57;;
73776;SDS011;62088;50.240;2.696;2023-01-13T09:59:44;31.95;;;6.13;;
73776;SDS011;62088;50.240;2.696;2023-01-13T10:08:12;47.03;;;7.03;;
73776;SDS011;62088;50.240;2.696;2023-01-13T10:10:53;36.58;;;6.45;;
73776;SDS011;62088;50.240;2.696;2023-01-13T10:15:58;34.08;;;6.15;;
73776;SDS011;62088;50.240;2.696;2023-01-13T10:18:43;28.48;;;4.68;;
73776;SDS011;62088;50.240;2.696;2023-01-13T10:24:04;36.25;;;6.95;;
73776;SDS011;62088;50.240;2.696;2023-01-13T10:29:32;37.45;;;6.25;;
73776;SDS011;62088;50.240;2.696;2023-01-13T10:32:02;34.83;;;4.22;;
73776;SDS011;62088;50.240;2.696;2023-01-13T10:34:29;32.85;;;6.35;;
73776;SDS011;62088;50.240;2.696;2023-01-13T10:37:00;26.15;;;4.25;;
73776;SDS011;62088;50.240;2.696;2023-01-13T10:39:42;36.83;;;6.05;;
73776;SDS011;62088;50.240;2.696;2023-01-13T10:42:14;31.17;;;5.43;;
73776;SDS011;62088;50.240;2.696;2023-01-13T10:44:47;32.60;;;5.87;;
73776;SDS011;62088;50.240;2.696;2023-01-13T10:47:25;33.00;;;6.28;;
73776;SDS011;62088;50.240;2.696;2023-01-13T10:52:37;33.00;;;6.10;;
73776;SDS011;62088;50.240;2.696;2023-01-13T10:55:24;35.92;;;6.30;;
73776;SDS011;62088;50.240;2.696;2023-01-13T10:57:51;31.95;;;5.20;;
73776;SDS011;62088;50.240;2.696;2023-01-13T11:00:25;33.08;;;5.68;;
73776;SDS011;62088;50.240;2.696;2023-01-13T11:05:57;31.88;;;5.57;;
73776;SDS011;62088;50.240;2.696;2023-01-13T11:08:28;30.48;;;5.32;;
73776;SDS011;62088;50.240;2.696;2023-01-13T11:11:21;29.88;;;4.10;;
73776;SDS011;62088;50.240;2.696;2023-01-13T11:14:00;26.88;;;4.70;;
73776;SDS011;62088;50.240;2.696;2023-01-13T11:16:51;34.80;;;5.57;;
73776;SDS011;62088;50.240;2.696;2023-01-13T11:19:21;23.85;;;3.58;;
73776;SDS011;62088;50.240;2.696;2023-01-13T11:24:39;31.70;;;5.68;;
73776;SDS011;62088;50.240;2.696;2023-01-13T11:27:18;25.48;;;5.28;;
73776;SDS011;62088;50.240;2.696;2023-01-13T11:30:04;27.35;;;5.40;;
73776;SDS011;62088;50.240;2.696;2023-01-13T11:32:59;21.92;;;4.15;;
73776;SDS011;62088;50.240;2.696;2023-01-13T11:38:43;32.35;;;5.68;;
73776;SDS011;62088;50.240;2.696;2023-01-13T11:41:26;29.90;;;5.95;;
73776;SDS011;62088;50.240;2.696;2023-01-13T11:44:05;29.95;;;6.05;;
73776;SDS011;62088;50.240;2.696;2023-01-13T11:46:53;34.33;;;6.05;;
73776;SDS011;62088;50.240;2.696;2023-01-13T11:49:22;32.30;;;6.07;;
73776;SDS011;62088;50.240;2.696;2023-01-13T11:57:54;28.50;;;5.13;;
73776;SDS011;62088;50.240;2.696;2023-01-13T12:00:50;33.83;;;5.82;;
73776;SDS011;62088;50.240;2.696;2023-01-13T12:06:13;33.03;;;5.60;;
73776;SDS011;62088;50.240;2.696;2023-01-13T12:15:30;34.35;;;5.88;;
73776;SDS011;62088;50.240;2.696;2023-01-13T12:23:17;24.38;;;4.72;;
73776;SDS011;62088;50.240;2.696;2023-01-13T12:26:04;22.05;;;4.55;;
73776;SDS011;62088;50.240;2.696;2023-01-13T12:31:18;31.02;;;5.00;;
73776;SDS011;62088;50.240;2.696;2023-01-13T12:33:50;28.02;;;5.20;;
73776;SDS011;62088;50.240;2.696;2023-01-13T12:44:36;23.58;;;4.22;;
73776;SDS011;62088;50.240;2.696;2023-01-13T12:47:03;25.60;;;4.80;;
73776;SDS011;62088;50.240;2.696;2023-01-13T12:49:33;25.55;;;5.10;;
73776;SDS011;62088;50.240;2.696;2023-01-13T12:57:18;24.83;;;5.35;;
73776;SDS011;62088;50.240;2.696;2023-01-13T13:02:33;27.52;;;5.40;;
73776;SDS011;62088;50.240;2.696;2023-01-13T13:08:04;27.42;;;6.13;;
73776;SDS011;62088;50.240;2.696;2023-01-13T13:10:59;27.33;;;5.38;;
73776;SDS011;62088;50.240;2.696;2023-01-13T13:14:01;21.73;;;4.63;;
73776;SDS011;62088;50.240;2.696;2023-01-13T13:16:34;28.33;;;5.28;;
73776;SDS011;62088;50.240;2.696;2023-01-13T13:24:41;29.45;;;5.28;;
73776;SDS011;62088;50.240;2.696;2023-01-13T13:27:37;21.27;;;4.53;;
73776;SDS011;62088;50.240;2.696;2023-01-13T13:30:35;27.23;;;5.07;;
73776;SDS011;62088;50.240;2.696;2023-01-13T13:38:28;28.02;;;4.90;;
73776;SDS011;62088;50.240;2.696;2023-01-13T13:41:21;27.02;;;5.22;;
73776;SDS011;62088;50.240;2.696;2023-01-13T13:44:19;23.02;;;4.75;;
73776;SDS011;62088;50.240;2.696;2023-01-13T13:47:13;24.95;;;4.68;;
73776;SDS011;62088;50.240;2.696;2023-01-13T13:49:41;27.92;;;6.13;;
73776;SDS011;62088;50.240;2.696;2023-01-13T13:57:29;21.63;;;4.82;;
73776;SDS011;62088;50.240;2.696;2023-01-13T14:00:06;28.73;;;4.85;;
73776;SDS011;62088;50.240;2.696;2023-01-13T14:02:55;22.70;;;4.22;;
73776;SDS011;62088;50.240;2.696;2023-01-13T14:05:25;20.90;;;4.40;;
73776;SDS011;62088;50.240;2.696;2023-01-13T14:08:08;22.63;;;4.28;;
73776;SDS011;62088;50.240;2.696;2023-01-13T14:10:43;30.50;;;5.32;;
73776;SDS011;62088;50.240;2.696;2023-01-13T14:13:12;22.52;;;4.70;;
73776;SDS011;62088;50.240;2.696;2023-01-13T14:16:03;21.55;;;4.43;;
73776;SDS011;62088;50.240;2.696;2023-01-13T14:18:33;27.02;;;4.93;;
73776;SDS011;62088;50.240;2.696;2023-01-13T14:23:52;19.98;;;4.03;;
73776;SDS011;62088;50.240;2.696;2023-01-13T14:26:31;32.33;;;4.82;;
73776;SDS011;62088;50.240;2.696;2023-01-13T14:28:58;23.50;;;5.43;;
73776;SDS011;62088;50.240;2.696;2023-01-13T14:31:27;20.55;;;4.18;;
73776;SDS011;62088;50.240;2.696;2023-01-13T14:33:55;24.92;;;4.88;;
73776;SDS011;62088;50.240;2.696;2023-01-13T14:41:29;27.20;;;4.78;;
73776;SDS011;62088;50.240;2.696;2023-01-13T14:44:11;27.15;;;5.72;;
73776;SDS011;62088;50.240;2.696;2023-01-13T14:47:01;23.95;;;5.22;;
73776;SDS011;62088;50.240;2.696;2023-01-13T14:52:34;27.13;;;5.15;;
73776;SDS011;62088;50.240;2.696;2023-01-13T14:57:36;32.40;;;5.38;;
73776;SDS011;62088;50.240;2.696;2023-01-13T15:10:28;28.08;;;5.32;;
73776;SDS011;62088;50.240;2.696;2023-01-13T15:13:01;32.17;;;5.40;;
73776;SDS011;62088;50.240;2.696;2023-01-13T15:15:34;32.42;;;5.53;;
73776;SDS011;62088;50.240;2.696;2023-01-13T15:18:13;32.85;;;5.97;;
73776;SDS011;62088;50.240;2.696;2023-01-13T15:20:42;31.00;;;6.78;;
73776;SDS011;62088;50.240;2.696;2023-01-13T15:23:10;35.13;;;6.43;;
73776;SDS011;62088;50.240;2.696;2023-01-13T15:25:38;35.03;;;6.75;;
73776;SDS011;62088;50.240;2.696;2023-01-13T15:28:17;31.33;;;6.22;;
73776;SDS011;62088;50.240;2.696;2023-01-13T15:30:47;44.42;;;6.45;;
73776;SDS011;62088;50.240;2.696;2023-01-13T15:33:16;34.88;;;7.95;;
73776;SDS011;62088;50.240;2.696;2023-01-13T15:35:44;39.63;;;6.38;;
73776;SDS011;62088;50.240;2.696;2023-01-13T15:38:14;39.22;;;7.72;;
73776;SDS011;62088;50.240;2.696;2023-01-13T15:40:44;27.80;;;6.25;;
73776;SDS011;62088;50.240;2.696;2023-01-13T15:43:13;31.98;;;6.22;;
73776;SDS011;62088;50.240;2.696;2023-01-13T15:46:00;39.22;;;6.30;;
73776;SDS011;62088;50.240;2.696;2023-01-13T15:48:48;37.25;;;6.03;;
73776;SDS011;62088;50.240;2.696;2023-01-13T15:51:20;27.35;;;4.53;;
73776;SDS011;62088;50.240;2.696;2023-01-13T15:53:47;34.13;;;7.38;;
73776;SDS011;62088;50.240;2.696;2023-01-13T15:56:18;40.00;;;6.53;;
73776;SDS011;62088;50.240;2.696;2023-01-13T15:58:49;36.38;;;7.30;;
73776;SDS011;62088;50.240;2.696;2023-01-13T16:01:16;48.45;;;8.65;;
73776;SDS011;62088;50.240;2.696;2023-01-13T16:03:43;31.50;;;5.50;;
73776;SDS011;62088;50.240;2.696;2023-01-13T16:06:12;40.55;;;6.80;;
73776;SDS011;62088;50.240;2.696;2023-01-13T16:08:53;19.48;;;4.10;;
73776;SDS011;62088;50.240;2.696;2023-01-13T16:11:20;48.58;;;8.60;;
73776;SDS011;62088;50.240;2.696;2023-01-13T16:13:47;39.85;;;8.10;;
73776;SDS011;62088;50.240;2.696;2023-01-13T16:16:21;33.88;;;4.90;;
73776;SDS011;62088;50.240;2.696;2023-01-13T16:18:53;40.33;;;6.63;;
73776;SDS011;62088;50.240;2.696;2023-01-13T16:21:20;32.03;;;4.68;;
73776;SDS011;62088;50.240;2.696;2023-01-13T16:23:48;36.60;;;6.10;;
73776;SDS011;62088;50.240;2.696;2023-01-13T16:26:17;45.10;;;8.07;;
73776;SDS011;62088;50.240;2.696;2023-01-13T16:28:50;37.78;;;6.90;;
73776;SDS011;62088;50.240;2.696;2023-01-13T16:31:25;51.22;;;7.97;;
73776;SDS011;62088;50.240;2.696;2023-01-13T16:33:58;42.10;;;7.60;;
73776;SDS011;62088;50.240;2.696;2023-01-13T16:36:26;39.13;;;6.45;;
73776;SDS011;62088;50.240;2.696;2023-01-13T16:38:55;32.75;;;5.10;;
73776;SDS011;62088;50.240;2.696;2023-01-13T16:41:22;39.17;;;7.07;;
73776;SDS011;62088;50.240;2.696;2023-01-13T16:43:52;32.97;;;4.55;;
73776;SDS011;62088;50.240;2.696;2023-01-13T16:46:21;36.65;;;5.45;;
73776;SDS011;62088;50.240;2.696;2023-01-13T16:48:54;39.38;;;6.95;;
73776;SDS011;62088;50.240;2.696;2023-01-13T16:51:23;35.03;;;6.82;;
73776;SDS011;62088;50.240;2.696;2023-01-13T16:53:50;36.63;;;7.57;;
73776;SDS011;62088;50.240;2.696;2023-01-13T16:59:08;46.83;;;8.55;;
73776;SDS011;62088;50.240;2.696;2023-01-13T17:01:39;42.55;;;8.48;;
73776;SDS011;62088;50.240;2.696;2023-01-13T17:04:12;41.22;;;7.22;;
73776;SDS011;62088;50.240;2.696;2023-01-13T17:06:42;40.70;;;6.72;;
73776;SDS011;62088;50.240;2.696;2023-01-13T17:09:26;43.05;;;7.78;;
73776;SDS011;62088;50.240;2.696;2023-01-13T17:11:54;32.50;;;5.07;;
73776;SDS011;62088;50.240;2.696;2023-01-13T17:14:22;39.28;;;5.53;;
73776;SDS011;62088;50.240;2.696;2023-01-13T17:16:51;37.45;;;6.65;;
73776;SDS011;62088;50.240;2.696;2023-01-13T17:19:20;44.78;;;7.95;;
73776;SDS011;62088;50.240;2.696;2023-01-13T17:21:48;50.88;;;8.77;;
73776;SDS011;62088;50.240;2.696;2023-01-13T17:24:16;42.22;;;8.70;;
73776;SDS011;62088;50.240;2.696;2023-01-13T17:26:48;35.60;;;5.40;;
73776;SDS011;62088;50.240;2.696;2023-01-13T17:29:20;47.58;;;8.02;;
73776;SDS011;62088;50.240;2.696;2023-01-13T17:31:50;46.50;;;8.48;;
73776;SDS011;62088;50.240;2.696;2023-01-13T17:34:18;40.55;;;7.57;;
73776;SDS011;62088;50.240;2.696;2023-01-13T17:36:46;30.67;;;5.97;;
73776;SDS011;62088;50.240;2.696;2023-01-13T17:39:20;41.55;;;8.23;;